createdAt,value
2019-04-22T00:02:17.494Z,27.93
2019-04-22T00:06:00.390Z,26.62
2019-04-22T00:09:30.926Z,28.30
2019-04-22T00:13:02.882Z,26.85
2019-04-22T00:16:32.058Z,27.13
2019-04-22T00:19:55.606Z,28.50
2019-04-22T00:23:13.184Z,29.48
2019-04-22T00:26:44.406Z,29.82
2019-04-22T00:30:15.481Z,27.93
2019-04-22T00:33:31.251Z,29.00
2019-04-22T00:36:54.834Z,29.40
2019-04-22T00:40:21.347Z,29.50
2019-04-22T00:43:51.108Z,30.60
2019-04-22T00:47:16.386Z,31.60
2019-04-22T00:50:44.321Z,31.70
2019-04-22T00:54:03.819Z,31.47
2019-04-22T00:57:28.449Z,31.47
2019-04-22T01:00:54.225Z,32.13
2019-04-22T01:04:31.142Z,29.53
2019-04-22T01:07:44.565Z,31.53
2019-04-22T01:11:21.449Z,33.23
2019-04-22T01:14:38.280Z,31.10
2019-04-22T01:17:57.882Z,31.90
2019-04-22T01:21:36.376Z,33.00
2019-04-22T01:24:50.257Z,31.83
2019-04-22T01:28:10.873Z,30.87
2019-04-22T01:31:23.945Z,32.40
2019-04-22T01:34:57.591Z,33.10
2019-04-22T01:38:31.353Z,32.53
2019-04-22T01:42:10.729Z,33.17
2019-04-22T01:45:31.300Z,33.13
2019-04-22T01:48:54.280Z,33.40
2019-04-22T01:52:15.765Z,35.13
2019-04-22T01:55:45.328Z,32.50
2019-04-22T01:58:59.014Z,33.13
2019-04-22T02:02:40.108Z,32.63
2019-04-22T02:06:02.349Z,34.67
2019-04-22T02:12:48.367Z,33.10
2019-04-22T02:16:15.147Z,33.33
2019-04-22T02:19:31.173Z,34.90
2019-04-22T02:23:45.845Z,34.80
2019-04-22T02:26:53.083Z,35.13
2019-04-22T02:30:05.826Z,33.70
2019-04-22T02:34:00.799Z,33.97
2019-04-22T02:37:02.852Z,36.47
2019-04-22T02:40:50.718Z,35.40
2019-04-22T02:43:59.581Z,36.00
2019-04-22T02:47:27.604Z,36.07
2019-04-22T02:50:43.774Z,35.60
2019-04-22T02:57:45.058Z,37.43
2019-04-22T03:01:05.954Z,36.30
2019-04-22T03:08:02.447Z,36.83
2019-04-22T03:11:19.179Z,37.50
2019-04-22T03:14:41.353Z,38.77
2019-04-22T03:18:09.725Z,37.83
2019-04-22T03:21:34.317Z,39.23
2019-04-22T03:25:23.661Z,37.90
2019-04-22T03:28:33.087Z,40.67
2019-04-22T03:39:06.848Z,38.70
2019-04-22T03:45:32.216Z,40.60
2019-04-22T03:49:23.121Z,41.83
2019-04-22T03:55:57.523Z,40.77
2019-04-22T03:59:29.095Z,42.17
2019-04-22T04:06:05.311Z,42.30
2019-04-22T04:09:42.617Z,45.97
2019-04-22T04:13:02.863Z,43.30
2019-04-22T04:16:29.978Z,41.40
2019-04-22T04:30:13.978Z,43.53
2019-04-22T04:33:51.856Z,45.57
2019-04-22T04:37:07.482Z,42.93
2019-04-22T04:40:28.798Z,45.83
2019-04-22T04:47:32.934Z,44.57
2019-04-22T04:57:56.974Z,45.37
2019-04-22T05:01:03.297Z,45.83
2019-04-22T05:04:25.538Z,45.13
2019-04-22T05:07:51.937Z,47.80
2019-04-22T05:11:16.098Z,48.80
2019-04-22T05:14:28.752Z,48.47
2019-04-22T05:24:56.884Z,54.80
2019-04-22T05:28:10.328Z,49.33
2019-04-22T05:31:37.198Z,52.00
2019-04-22T05:35:01.333Z,48.10
2019-04-22T05:38:33.194Z,50.80
2019-04-22T05:41:54.854Z,49.50
2019-04-22T05:45:23.146Z,49.33
2019-04-22T05:48:46.288Z,52.73
2019-04-22T05:52:11.110Z,54.33
2019-04-22T05:55:38.650Z,51.83
2019-04-22T06:02:45.635Z,52.43
2019-04-22T06:05:47.409Z,48.67
2019-04-22T06:09:16.972Z,51.57
2019-04-22T06:12:40.098Z,51.03
2019-04-22T06:16:09.351Z,48.80
2019-04-22T06:19:34.881Z,47.93
2019-04-22T06:26:46.267Z,48.50
2019-04-22T06:29:50.785Z,46.33
2019-04-22T06:36:45.212Z,50.33
2019-04-22T06:40:06.168Z,48.10
2019-04-22T06:47:00.115Z,51.48
2019-04-22T06:50:26.149Z,49.18
2019-04-22T06:53:47.283Z,53.13
2019-04-22T06:57:11.586Z,55.80
2019-04-22T07:00:36.712Z,61.70
2019-04-22T07:07:26.759Z,58.85
2019-04-22T07:10:50.742Z,59.50
2019-04-22T07:14:28.586Z,60.12
2019-04-22T07:21:05.940Z,59.90
2019-04-22T07:24:41.808Z,56.85
2019-04-22T07:28:01.408Z,57.03
2019-04-22T07:31:26.842Z,57.40
2019-04-22T07:34:52.460Z,52.95
2019-04-22T07:38:25.526Z,49.30
2019-04-22T07:41:49.023Z,32.33
2019-04-22T07:45:10.207Z,25.05
2019-04-22T07:48:43.413Z,25.65
2019-04-22T07:51:56.175Z,18.75
2019-04-22T07:55:30.586Z,18.02
2019-04-22T07:58:53.658Z,17.05
2019-04-22T08:02:16.037Z,16.73
2019-04-22T08:05:51.926Z,15.03
2019-04-22T08:12:51.922Z,17.10
2019-04-22T08:15:58.114Z,18.77
2019-04-22T08:22:51.048Z,19.00
2019-04-22T08:26:16.771Z,19.98
2019-04-22T08:29:46.955Z,22.05
2019-04-22T08:33:05.123Z,19.95
2019-04-22T08:36:32.346Z,22.82
2019-04-22T08:40:04.537Z,22.98
2019-04-22T08:43:26.796Z,20.45
2019-04-22T08:47:04.413Z,22.82
2019-04-22T08:50:16.500Z,19.20
2019-04-22T08:53:45.403Z,17.52
2019-04-22T08:56:56.940Z,18.05
2019-04-22T09:00:44.572Z,20.08
2019-04-22T09:03:52.463Z,18.98
2019-04-22T09:07:20.931Z,19.98
2019-04-22T09:11:07.770Z,21.07
2019-04-22T09:17:28.860Z,17.77
2019-04-22T09:20:58.823Z,17.23
2019-04-22T09:27:48.417Z,13.45
2019-04-22T09:31:11.803Z,12.65
2019-04-22T09:34:35.192Z,9.90
2019-04-22T09:38:12.064Z,9.95
2019-04-22T09:41:27.139Z,9.28
2019-04-22T09:45:06.055Z,7.92
2019-04-22T09:51:46.172Z,7.80
2019-04-22T09:58:31.687Z,6.97
2019-04-22T10:02:13.387Z,7.35
2019-04-22T10:05:21.179Z,7.15
2019-04-22T10:09:01.734Z,7.85
2019-04-22T10:12:19.086Z,7.37
2019-04-22T10:15:39.646Z,7.30
2019-04-22T10:19:04.204Z,7.35
2019-04-22T10:22:35.004Z,7.95
2019-04-22T10:25:57.112Z,9.00
2019-04-22T10:29:43.902Z,8.08
2019-04-22T10:33:03.005Z,7.28
2019-04-22T10:35:47.598Z,7.62
2019-04-22T10:39:12.555Z,6.80
2019-04-22T10:42:43.438Z,7.28
2019-04-22T10:46:08.108Z,7.75
2019-04-22T10:49:31.536Z,7.97
2019-04-22T10:52:55.344Z,7.05
2019-04-22T10:56:22.981Z,6.90
2019-04-22T10:59:46.863Z,7.20
2019-04-22T11:03:12.055Z,8.28
2019-04-22T11:06:41.006Z,7.45
2019-04-22T11:10:22.806Z,6.97
2019-04-22T11:13:31.629Z,6.72
2019-04-22T11:16:58.191Z,6.70
2019-04-22T11:20:21.775Z,6.97
2019-04-22T11:23:45.120Z,6.05
2019-04-22T11:27:08.402Z,7.20
2019-04-22T11:30:32.397Z,6.90
2019-04-22T11:33:56.691Z,7.00
2019-04-22T11:37:20.765Z,7.50
2019-04-22T11:40:49.950Z,6.90
2019-04-22T11:44:09.598Z,7.33
2019-04-22T11:47:33.371Z,7.30
2019-04-22T11:50:57.770Z,6.50
2019-04-22T11:54:22.982Z,7.00
2019-04-22T11:57:47.606Z,8.18
2019-04-22T12:01:12.666Z,7.65
2019-04-22T12:04:36.063Z,6.92
2019-04-22T12:08:03.007Z,6.35
2019-04-22T12:11:26.364Z,7.62
2019-04-22T12:14:50.085Z,7.35
2019-04-22T12:18:15.168Z,6.45
2019-04-22T12:21:39.367Z,6.95
2019-04-22T12:25:04.134Z,6.67
2019-04-22T12:28:28.710Z,7.37
2019-04-22T12:31:51.871Z,6.30
2019-04-22T12:35:17.755Z,7.30
2019-04-22T12:38:41.804Z,6.35
2019-04-22T12:42:06.195Z,6.17
2019-04-22T12:45:31.925Z,6.12
2019-04-22T12:48:56.257Z,6.08
2019-04-22T12:52:26.655Z,6.00
2019-04-22T12:55:45.930Z,6.08
2019-04-22T12:59:09.719Z,5.28
2019-04-22T13:02:33.182Z,5.60
2019-04-22T13:05:57.548Z,6.40
2019-04-22T13:09:21.242Z,5.17
2019-04-22T13:12:44.756Z,5.30
2019-04-22T13:16:09.033Z,6.05
2019-04-22T13:19:33.874Z,6.25
2019-04-22T13:22:57.107Z,7.08
2019-04-22T13:26:21.116Z,6.75
2019-04-22T13:29:46.567Z,6.70
2019-04-22T13:33:10.735Z,7.12
2019-04-22T13:36:34.640Z,7.65
2019-04-22T13:40:05.381Z,6.55
2019-04-22T13:43:34.745Z,7.62
2019-04-22T13:47:14.543Z,6.65
2019-04-22T13:57:32.815Z,6.70
2019-04-22T14:00:42.559Z,6.20
2019-04-22T14:04:32.553Z,6.90
2019-04-22T14:07:57.572Z,7.37
2019-04-22T14:11:34.155Z,6.72
2019-04-22T14:14:49.081Z,6.50
2019-04-22T14:18:12.867Z,6.33
2019-04-22T14:21:36.792Z,7.33
2019-04-22T14:25:02.877Z,6.25
2019-04-22T14:29:05.962Z,6.65
2019-04-22T14:32:32.349Z,6.90
2019-04-22T14:35:56.633Z,6.22
2019-04-22T14:39:19.888Z,6.15
2019-04-22T14:43:00.590Z,6.45
2019-04-22T14:46:35.983Z,5.65
2019-04-22T14:49:54.275Z,6.10
2019-04-22T14:53:21.037Z,5.95
2019-04-22T14:56:26.561Z,6.00
2019-04-22T14:59:50.177Z,5.80
2019-04-22T15:03:13.558Z,5.80
2019-04-22T15:06:37.952Z,6.50
2019-04-22T15:10:01.950Z,5.60
2019-04-22T15:13:25.396Z,6.17
2019-04-22T15:17:09.000Z,5.53
2019-04-22T15:20:41.975Z,6.15
2019-04-22T15:24:25.098Z,5.65
2019-04-22T15:27:51.074Z,6.12
2019-04-22T15:31:15.275Z,6.05
2019-04-22T15:34:39.501Z,5.80
2019-04-22T15:38:04.573Z,5.33
2019-04-22T15:41:30.415Z,5.83
2019-04-22T15:44:53.874Z,5.83
2019-04-22T15:48:17.117Z,5.17
2019-04-22T15:51:40.926Z,4.83
2019-04-22T15:55:04.863Z,4.60
2019-04-22T15:58:30.260Z,5.03
2019-04-22T16:01:58.168Z,4.90
2019-04-22T16:05:18.359Z,4.67
2019-04-22T16:08:41.457Z,4.42
2019-04-22T16:12:16.191Z,4.15
2019-04-22T16:15:30.739Z,3.87
2019-04-22T16:18:54.356Z,4.67
2019-04-22T16:22:19.728Z,4.25
2019-04-22T16:25:56.042Z,4.20
2019-04-22T16:29:19.450Z,4.50
2019-04-22T16:32:43.519Z,4.15
2019-04-22T16:36:07.251Z,4.45
2019-04-22T16:39:32.967Z,4.80
2019-04-22T16:42:59.265Z,3.77
2019-04-22T16:46:21.815Z,4.30
2019-04-22T16:49:45.697Z,4.20
2019-04-22T16:53:10.218Z,4.17
2019-04-22T16:56:35.650Z,4.20
2019-04-22T17:00:00.533Z,4.33
2019-04-22T17:03:42.819Z,4.58
2019-04-22T17:07:12.363Z,3.20
2019-04-22T17:10:35.727Z,3.77
2019-04-22T17:13:59.399Z,3.42
2019-04-22T17:17:24.515Z,3.85
2019-04-22T17:20:48.736Z,4.00
2019-04-22T17:24:12.084Z,3.80
2019-04-22T17:27:35.272Z,4.12
2019-04-22T17:31:01.793Z,4.58
2019-04-22T17:34:27.529Z,3.25
2019-04-22T17:38:01.758Z,3.58
2019-04-22T17:41:33.115Z,3.87
2019-04-22T17:45:38.919Z,3.40
2019-04-22T17:49:04.348Z,3.52
2019-04-22T17:52:30.371Z,3.87
2019-04-22T17:56:00.606Z,2.90
2019-04-22T17:59:25.038Z,3.47
2019-04-22T18:02:45.875Z,3.85
2019-04-22T18:05:59.550Z,3.60
2019-04-22T18:10:10.704Z,3.67
2019-04-22T18:13:14.018Z,3.52
2019-04-22T18:16:30.525Z,3.77
2019-04-22T18:19:51.875Z,3.87
2019-04-22T18:23:09.649Z,4.17
2019-04-22T18:26:49.754Z,5.10
2019-04-22T18:30:09.234Z,4.28
2019-04-22T18:33:37.115Z,4.35
2019-04-22T18:37:01.682Z,4.20
2019-04-22T18:40:30.975Z,3.85
2019-04-22T18:43:58.777Z,4.50
2019-04-22T18:47:18.585Z,5.05
2019-04-22T18:50:56.289Z,4.67
2019-04-22T18:54:36.234Z,4.50
2019-04-22T18:57:59.110Z,4.50
2019-04-22T19:01:10.251Z,4.20
2019-04-22T19:04:44.362Z,4.47
2019-04-22T19:08:29.256Z,4.47
2019-04-22T19:12:01.797Z,4.37
2019-04-22T19:15:22.657Z,4.42
2019-04-22T19:18:41.505Z,5.03
2019-04-22T19:22:02.209Z,4.70
2019-04-22T19:25:23.897Z,4.25
2019-04-22T19:28:58.794Z,4.85
2019-04-22T19:32:21.104Z,5.40
2019-04-22T19:35:40.049Z,4.78
2019-04-22T19:39:07.998Z,4.67
2019-04-22T19:46:00.453Z,3.77
2019-04-22T19:49:33.328Z,3.77
2019-04-22T19:52:50.046Z,4.47
2019-04-22T19:56:14.737Z,5.22
2019-04-22T19:59:45.501Z,15.40
2019-04-22T20:03:37.707Z,10.58
2019-04-22T20:06:53.394Z,5.20
2019-04-22T20:10:26.512Z,4.40
2019-04-22T20:13:55.734Z,4.55
2019-04-22T20:17:18.704Z,3.70
2019-04-22T20:20:44.654Z,4.05
2019-04-22T20:23:55.933Z,3.37
2019-04-22T20:27:39.248Z,3.62
2019-04-22T20:30:55.494Z,3.37
2019-04-22T20:34:23.929Z,3.45
2019-04-22T20:37:54.878Z,3.35
2019-04-22T20:41:15.017Z,3.47
2019-04-22T20:44:47.291Z,3.98
2019-04-22T20:47:58.809Z,4.45
2019-04-22T20:51:45.912Z,3.95
2019-04-22T20:54:55.983Z,3.58
2019-04-22T20:58:21.246Z,3.20
2019-04-22T21:01:43.238Z,4.25
2019-04-22T21:05:00.155Z,3.62
2019-04-22T21:08:38.952Z,3.90
2019-04-22T21:11:57.773Z,3.27
2019-04-22T21:15:36.860Z,3.42
2019-04-22T21:18:46.296Z,4.12
2019-04-22T21:22:27.297Z,3.55
2019-04-22T21:25:39.601Z,3.58
2019-04-22T21:29:14.718Z,3.37
2019-04-22T21:32:42.036Z,3.35
2019-04-22T21:36:16.240Z,3.25
2019-04-22T21:39:27.459Z,3.27
2019-04-22T21:43:01.041Z,3.40
2019-04-22T21:46:22.333Z,3.33
2019-04-22T21:49:51.397Z,3.60
2019-04-22T21:53:14.495Z,2.98
2019-04-22T21:57:16.984Z,3.30
2019-04-22T22:00:43.230Z,3.30
2019-04-22T22:04:06.616Z,3.12
2019-04-22T22:07:13.561Z,3.15
2019-04-22T22:10:56.853Z,3.17
2019-04-22T22:14:16.720Z,3.40
2019-04-22T22:17:35.370Z,3.40
2019-04-22T22:21:30.928Z,3.00
2019-04-22T22:24:35.914Z,3.10
2019-04-22T22:28:00.955Z,3.25
2019-04-22T22:31:31.382Z,3.27
2019-04-22T22:34:52.077Z,3.10
2019-04-22T22:38:13.440Z,2.85
2019-04-22T22:41:18.407Z,3.40
2019-04-22T22:44:46.741Z,3.25
2019-04-22T22:48:34.875Z,3.22
2019-04-22T22:52:03.561Z,3.33
2019-04-22T22:55:22.262Z,3.42
2019-04-22T22:58:50.369Z,2.87
2019-04-22T23:02:09.657Z,2.58
2019-04-22T23:05:40.213Z,3.47
2019-04-22T23:09:04.449Z,3.35
2019-04-22T23:12:34.762Z,3.20
2019-04-22T23:15:47.732Z,3.15
2019-04-22T23:19:02.017Z,3.65
2019-04-22T23:22:36.147Z,2.92
2019-04-22T23:26:11.877Z,3.45
2019-04-22T23:29:47.540Z,3.02
2019-04-22T23:33:21.814Z,2.92
2019-04-22T23:37:04.385Z,3.00
2019-04-22T23:40:37.117Z,2.92
2019-04-22T23:44:02.061Z,2.72
2019-04-22T23:47:24.279Z,2.75
2019-04-22T23:50:54.146Z,2.80
2019-04-22T23:54:23.974Z,3.40
2019-04-22T23:57:46.571Z,3.17
